sensor_id;sensor_type;location;lat;lon;timestamp;temperature;humidity
80412;SHT30;69749;42.684;23.360;2024-02-14T00:01:31;8.85;61.87
80412;SHT30;69749;42.684;23.360;2024-02-14T00:03:56;8.85;61.73
80412;SHT30;69749;42.684;23.360;2024-02-14T00:06:22;8.85;61.97
80412;SHT30;69749;42.684;23.360;2024-02-14T00:08:49;8.89;61.88
80412;SHT30;69749;42.684;23.360;2024-02-14T00:11:14;8.88;61.91
80412;SHT30;69749;42.684;23.360;2024-02-14T00:13:39;8.88;62.02
80412;SHT30;69749;42.684;23.360;2024-02-14T00:16:05;8.88;61.68
80412;SHT30;69749;42.684;23.360;2024-02-14T00:18:31;8.92;61.84
80412;SHT30;69749;42.684;23.360;2024-02-14T00:20:57;8.93;61.60
80412;SHT30;69749;42.684;23.360;2024-02-14T00:23:22;8.98;61.56
80412;SHT30;69749;42.684;23.360;2024-02-14T00:25:48;8.99;61.68
80412;SHT30;69749;42.684;23.360;2024-02-14T00:28:13;8.98;61.21
80412;SHT30;69749;42.684;23.360;2024-02-14T00:30:39;8.95;61.41
80412;SHT30;69749;42.684;23.360;2024-02-14T00:33:05;8.91;61.56
80412;SHT30;69749;42.684;23.360;2024-02-14T00:35:30;8.91;61.72
80412;SHT30;69749;42.684;23.360;2024-02-14T00:37:56;8.84;61.81
80412;SHT30;69749;42.684;23.360;2024-02-14T00:40:21;8.84;62.06
80412;SHT30;69749;42.684;23.360;2024-02-14T00:42:48;8.89;61.66
80412;SHT30;69749;42.684;23.360;2024-02-14T00:45:13;8.98;61.30
80412;SHT30;69749;42.684;23.360;2024-02-14T00:47:39;9.05;61.20
80412;SHT30;69749;42.684;23.360;2024-02-14T00:50:05;9.01;61.13
80412;SHT30;69749;42.684;23.360;2024-02-14T00:52:30;9.02;61.16
80412;SHT30;69749;42.684;23.360;2024-02-14T00:54:56;8.99;61.05
80412;SHT30;69749;42.684;23.360;2024-02-14T00:57:22;8.95;61.68
80412;SHT30;69749;42.684;23.360;2024-02-14T00:59:52;9.01;61.59
80412;SHT30;69749;42.684;23.360;2024-02-14T01:02:18;9.09;61.36
80412;SHT30;69749;42.684;23.360;2024-02-14T01:04:43;9.16;60.64
80412;SHT30;69749;42.684;23.360;2024-02-14T01:07:09;9.14;60.87
80412;SHT30;69749;42.684;23.360;2024-02-14T01:09:35;9.12;60.68
80412;SHT30;69749;42.684;23.360;2024-02-14T01:12:02;9.01;60.78
80412;SHT30;69749;42.684;23.360;2024-02-14T01:14:27;9.04;61.10
80412;SHT30;69749;42.684;23.360;2024-02-14T01:16:53;9.01;60.76
80412;SHT30;69749;42.684;23.360;2024-02-14T01:19:19;8.99;60.86
80412;SHT30;69749;42.684;23.360;2024-02-14T01:21:45;8.96;60.94
80412;SHT30;69749;42.684;23.360;2024-02-14T01:24:14;9.05;60.92
80412;SHT30;69749;42.684;23.360;2024-02-14T01:26:40;9.12;60.54
80412;SHT30;69749;42.684;23.360;2024-02-14T01:29:08;9.12;60.65
80412;SHT30;69749;42.684;23.360;2024-02-14T01:31:34;9.12;60.47
80412;SHT30;69749;42.684;23.360;2024-02-14T01:34:00;9.05;60.57
80412;SHT30;69749;42.684;23.360;2024-02-14T01:36:30;9.01;60.51
80412;SHT30;69749;42.684;23.360;2024-02-14T01:38:56;8.85;61.03
80412;SHT30;69749;42.684;23.360;2024-02-14T01:41:21;8.82;61.10
80412;SHT30;69749;42.684;23.360;2024-02-14T01:43:47;8.84;61.10
80412;SHT30;69749;42.684;23.360;2024-02-14T01:46:13;8.82;61.09
80412;SHT30;69749;42.684;23.360;2024-02-14T01:48:39;8.77;60.92
80412;SHT30;69749;42.684;23.360;2024-02-14T01:51:09;8.71;61.46
80412;SHT30;69749;42.684;23.360;2024-02-14T01:53:36;8.75;61.60
80412;SHT30;69749;42.684;23.360;2024-02-14T01:56:03;8.75;61.32
80412;SHT30;69749;42.684;23.360;2024-02-14T01:58:30;8.75;61.43
80412;SHT30;69749;42.684;23.360;2024-02-14T02:00:56;8.69;61.21
80412;SHT30;69749;42.684;23.360;2024-02-14T02:03:25;8.71;61.32
80412;SHT30;69749;42.684;23.360;2024-02-14T02:05:52;8.77;61.30
80412;SHT30;69749;42.684;23.360;2024-02-14T02:08:19;8.87;61.07
80412;SHT30;69749;42.684;23.360;2024-02-14T02:10:45;8.88;60.79
80412;SHT30;69749;42.684;23.360;2024-02-14T02:13:11;8.87;60.55
80412;SHT30;69749;42.684;23.360;2024-02-14T02:15:36;8.89;60.77
80412;SHT30;69749;42.684;23.360;2024-02-14T02:18:03;8.93;60.83
80412;SHT30;69749;42.684;23.360;2024-02-14T02:20:34;8.92;60.56
80412;SHT30;69749;42.684;23.360;2024-02-14T02:39:53;8.79;60.60
80412;SHT30;69749;42.684;23.360;2024-02-14T02:42:18;8.88;60.69
80412;SHT30;69749;42.684;23.360;2024-02-14T02:44:46;8.88;60.40
80412;SHT30;69749;42.684;23.360;2024-02-14T02:47:13;8.91;60.17
80412;SHT30;69749;42.684;23.360;2024-02-14T02:49:42;8.89;60.38
80412;SHT30;69749;42.684;23.360;2024-02-14T02:52:10;8.93;60.16
80412;SHT30;69749;42.684;23.360;2024-02-14T02:54:36;9.01;59.90
80412;SHT30;69749;42.684;23.360;2024-02-14T02:57:01;8.99;59.82
80412;SHT30;69749;42.684;23.360;2024-02-14T02:59:29;9.08;59.66
80412;SHT30;69749;42.684;23.360;2024-02-14T03:01:55;9.12;59.69
80412;SHT30;69749;42.684;23.360;2024-02-14T03:04:22;9.12;59.57
80412;SHT30;69749;42.684;23.360;2024-02-14T03:06:47;9.05;58.92
80412;SHT30;69749;42.684;23.360;2024-02-14T03:09:13;8.98;59.24
80412;SHT30;69749;42.684;23.360;2024-02-14T03:11:39;8.89;59.56
80412;SHT30;69749;42.684;23.360;2024-02-14T03:14:06;8.88;59.80
80412;SHT30;69749;42.684;23.360;2024-02-14T03:16:33;8.92;59.46
80412;SHT30;69749;42.684;23.360;2024-02-14T03:18:59;8.88;59.53
80412;SHT30;69749;42.684;23.360;2024-02-14T03:21:26;8.92;59.72
80412;SHT30;69749;42.684;23.360;2024-02-14T03:23:52;8.84;59.74
80412;SHT30;69749;42.684;23.360;2024-02-14T03:26:19;8.84;59.73
80412;SHT30;69749;42.684;23.360;2024-02-14T03:28:44;8.88;59.46
80412;SHT30;69749;42.684;23.360;2024-02-14T03:31:10;8.93;59.65
80412;SHT30;69749;42.684;23.360;2024-02-14T03:33:39;8.96;59.61
80412;SHT30;69749;42.684;23.360;2024-02-14T03:36:05;8.88;59.49
80412;SHT30;69749;42.684;23.360;2024-02-14T03:38:30;8.79;59.62
80412;SHT30;69749;42.684;23.360;2024-02-14T03:40:56;8.77;59.93
80412;SHT30;69749;42.684;23.360;2024-02-14T03:43:22;8.81;59.82
80412;SHT30;69749;42.684;23.360;2024-02-14T03:45:49;8.88;59.52
80412;SHT30;69749;42.684;23.360;2024-02-14T03:48:15;8.91;59.21
80412;SHT30;69749;42.684;23.360;2024-02-14T03:50:40;8.95;59.19
80412;SHT30;69749;42.684;23.360;2024-02-14T03:53:08;8.98;59.19
80412;SHT30;69749;42.684;23.360;2024-02-14T03:55:36;9.01;58.87
80412;SHT30;69749;42.684;23.360;2024-02-14T03:58:02;9.01;58.86
80412;SHT30;69749;42.684;23.360;2024-02-14T04:00:28;8.92;58.97
80412;SHT30;69749;42.684;23.360;2024-02-14T04:02:55;8.92;58.68
80412;SHT30;69749;42.684;23.360;2024-02-14T04:05:24;8.84;59.03
80412;SHT30;69749;42.684;23.360;2024-02-14T04:07:51;8.87;59.09
80412;SHT30;69749;42.684;23.360;2024-02-14T04:10:18;8.85;58.81
80412;SHT30;69749;42.684;23.360;2024-02-14T04:12:44;8.84;59.20
80412;SHT30;69749;42.684;23.360;2024-02-14T04:15:09;8.84;58.95
80412;SHT30;69749;42.684;23.360;2024-02-14T04:17:35;8.88;59.12
80412;SHT30;69749;42.684;23.360;2024-02-14T04:20:00;8.82;58.51
80412;SHT30;69749;42.684;23.360;2024-02-14T04:22:26;8.74;58.99
80412;SHT30;69749;42.684;23.360;2024-02-14T04:24:51;8.68;59.00
80412;SHT30;69749;42.684;23.360;2024-02-14T04:27:17;8.71;59.02
80412;SHT30;69749;42.684;23.360;2024-02-14T04:29:46;8.61;59.18
80412;SHT30;69749;42.684;23.360;2024-02-14T04:32:12;8.50;59.62
80412;SHT30;69749;42.684;23.360;2024-02-14T04:34:38;8.53;59.47
80412;SHT30;69749;42.684;23.360;2024-02-14T04:37:07;8.53;59.47
80412;SHT30;69749;42.684;23.360;2024-02-14T04:39:38;8.50;59.78
80412;SHT30;69749;42.684;23.360;2024-02-14T04:42:04;8.60;59.45
80412;SHT30;69749;42.684;23.360;2024-02-14T04:44:30;8.58;59.44
80412;SHT30;69749;42.684;23.360;2024-02-14T04:46:59;8.63;59.81
80412;SHT30;69749;42.684;23.360;2024-02-14T04:49:25;8.71;59.59
80412;SHT30;69749;42.684;23.360;2024-02-14T04:51:51;8.61;59.26
80412;SHT30;69749;42.684;23.360;2024-02-14T04:54:18;8.65;59.42
80412;SHT30;69749;42.684;23.360;2024-02-14T04:56:43;8.64;59.43
80412;SHT30;69749;42.684;23.360;2024-02-14T04:59:10;8.77;59.13
80412;SHT30;69749;42.684;23.360;2024-02-14T05:01:36;8.81;59.07
80412;SHT30;69749;42.684;23.360;2024-02-14T05:04:02;8.82;58.95
80412;SHT30;69749;42.684;23.360;2024-02-14T05:06:28;8.93;58.43
80412;SHT30;69749;42.684;23.360;2024-02-14T05:08:53;8.85;58.67
80412;SHT30;69749;42.684;23.360;2024-02-14T05:11:19;8.81;58.76
80412;SHT30;69749;42.684;23.360;2024-02-14T05:13:45;8.85;59.08
80412;SHT30;69749;42.684;23.360;2024-02-14T05:16:11;8.92;58.67
80412;SHT30;69749;42.684;23.360;2024-02-14T05:18:37;8.95;58.77
80412;SHT30;69749;42.684;23.360;2024-02-14T05:21:07;8.95;58.61
80412;SHT30;69749;42.684;23.360;2024-02-14T05:23:33;8.99;58.84
80412;SHT30;69749;42.684;23.360;2024-02-14T05:25:59;9.06;58.23
80412;SHT30;69749;42.684;23.360;2024-02-14T05:28:25;8.99;58.21
80412;SHT30;69749;42.684;23.360;2024-02-14T05:30:51;8.81;58.80
80412;SHT30;69749;42.684;23.360;2024-02-14T05:33:16;8.77;59.00
80412;SHT30;69749;42.684;23.360;2024-02-14T05:35:43;8.78;58.94
80412;SHT30;69749;42.684;23.360;2024-02-14T05:38:09;8.75;59.01
80412;SHT30;69749;42.684;23.360;2024-02-14T05:40:35;8.77;58.97
80412;SHT30;69749;42.684;23.360;2024-02-14T05:43:03;8.74;58.69
80412;SHT30;69749;42.684;23.360;2024-02-14T05:45:28;8.77;58.79
80412;SHT30;69749;42.684;23.360;2024-02-14T05:47:54;8.84;58.65
80412;SHT30;69749;42.684;23.360;2024-02-14T05:50:19;8.89;58.53
80412;SHT30;69749;42.684;23.360;2024-02-14T05:52:45;8.87;58.42
80412;SHT30;69749;42.684;23.360;2024-02-14T05:55:10;8.85;58.39
80412;SHT30;69749;42.684;23.360;2024-02-14T05:57:36;8.77;58.43
80412;SHT30;69749;42.684;23.360;2024-02-14T06:00:02;8.78;58.63
80412;SHT30;69749;42.684;23.360;2024-02-14T06:02:28;8.81;58.62
80412;SHT30;69749;42.684;23.360;2024-02-14T06:04:54;8.75;57.78
80412;SHT30;69749;42.684;23.360;2024-02-14T06:07:19;8.68;58.00
80412;SHT30;69749;42.684;23.360;2024-02-14T06:09:45;8.40;58.74
80412;SHT30;69749;42.684;23.360;2024-02-14T06:12:11;8.44;58.86
80412;SHT30;69749;42.684;23.360;2024-02-14T06:14:36;8.47;58.86
80412;SHT30;69749;42.684;23.360;2024-02-14T06:17:02;8.47;58.68
80412;SHT30;69749;42.684;23.360;2024-02-14T06:19:27;8.56;58.98
80412;SHT30;69749;42.684;23.360;2024-02-14T06:21:53;8.58;58.21
80412;SHT30;69749;42.684;23.360;2024-02-14T06:24:19;8.65;58.25
80412;SHT30;69749;42.684;23.360;2024-02-14T06:26:45;8.64;57.88
80412;SHT30;69749;42.684;23.360;2024-02-14T06:29:11;8.63;58.16
80412;SHT30;69749;42.684;23.360;2024-02-14T06:31:36;8.54;57.75
80412;SHT30;69749;42.684;23.360;2024-02-14T06:34:01;8.53;57.51
80412;SHT30;69749;42.684;23.360;2024-02-14T06:36:27;8.46;57.61
80412;SHT30;69749;42.684;23.360;2024-02-14T06:38:53;8.27;57.90
80412;SHT30;69749;42.684;23.360;2024-02-14T06:41:18;8.29;58.01
80412;SHT30;69749;42.684;23.360;2024-02-14T06:43:45;8.37;58.14
80412;SHT30;69749;42.684;23.360;2024-02-14T06:46:11;8.43;58.04
80412;SHT30;69749;42.684;23.360;2024-02-14T06:48:36;8.58;57.80
80412;SHT30;69749;42.684;23.360;2024-02-14T06:51:02;8.61;57.42
80412;SHT30;69749;42.684;23.360;2024-02-14T06:53:28;8.54;56.82
80412;SHT30;69749;42.684;23.360;2024-02-14T06:55:53;8.37;57.36
80412;SHT30;69749;42.684;23.360;2024-02-14T06:58:19;8.29;57.40
80412;SHT30;69749;42.684;23.360;2024-02-14T07:00:44;8.19;57.92
80412;SHT30;69749;42.684;23.360;2024-02-14T07:03:10;8.23;57.46
80412;SHT30;69749;42.684;23.360;2024-02-14T07:05:35;8.19;57.90
80412;SHT30;69749;42.684;23.360;2024-02-14T07:08:01;8.20;57.79
80412;SHT30;69749;42.684;23.360;2024-02-14T07:10:27;8.27;57.75
80412;SHT30;69749;42.684;23.360;2024-02-14T07:12:52;8.50;57.44
80412;SHT30;69749;42.684;23.360;2024-02-14T07:15:18;8.63;56.55
80412;SHT30;69749;42.684;23.360;2024-02-14T07:17:43;8.67;56.03
80412;SHT30;69749;42.684;23.360;2024-02-14T07:20:09;8.69;56.09
80412;SHT30;69749;42.684;23.360;2024-02-14T07:22:35;8.75;56.03
80412;SHT30;69749;42.684;23.360;2024-02-14T07:25:01;8.75;55.69
80412;SHT30;69749;42.684;23.360;2024-02-14T07:45:16;9.18;54.42
80412;SHT30;69749;42.684;23.360;2024-02-14T07:47:42;9.29;56.67
80412;SHT30;69749;42.684;23.360;2024-02-14T07:50:08;9.18;54.44
80412;SHT30;69749;42.684;23.360;2024-02-14T07:52:33;9.22;55.65
80412;SHT30;69749;42.684;23.360;2024-02-14T07:54:59;9.15;55.83
80412;SHT30;69749;42.684;23.360;2024-02-14T07:57:24;9.16;55.55
80412;SHT30;69749;42.684;23.360;2024-02-14T07:59:53;9.15;54.14
80412;SHT30;69749;42.684;23.360;2024-02-14T08:02:19;9.09;54.36
80412;SHT30;69749;42.684;23.360;2024-02-14T08:04:45;9.02;55.41
80412;SHT30;69749;42.684;23.360;2024-02-14T08:07:11;9.04;54.69
80412;SHT30;69749;42.684;23.360;2024-02-14T08:09:37;9.05;55.50
80412;SHT30;69749;42.684;23.360;2024-02-14T08:12:04;9.15;55.23
80412;SHT30;69749;42.684;23.360;2024-02-14T08:14:31;9.15;53.98
80412;SHT30;69749;42.684;23.360;2024-02-14T08:16:56;9.16;54.07
80412;SHT30;69749;42.684;23.360;2024-02-14T08:19:22;9.18;55.28
80412;SHT30;69749;42.684;23.360;2024-02-14T08:21:47;9.18;55.23
80412;SHT30;69749;42.684;23.360;2024-02-14T08:24:12;9.20;54.52
80412;SHT30;69749;42.684;23.360;2024-02-14T08:26:38;9.20;53.94
80412;SHT30;69749;42.684;23.360;2024-02-14T08:29:03;9.22;53.54
80412;SHT30;69749;42.684;23.360;2024-02-14T08:31:29;9.20;53.21
80412;SHT30;69749;42.684;23.360;2024-02-14T08:33:55;9.16;53.30
80412;SHT30;69749;42.684;23.360;2024-02-14T08:36:20;9.11;53.46
80412;SHT30;69749;42.684;23.360;2024-02-14T08:38:46;9.11;53.58
80412;SHT30;69749;42.684;23.360;2024-02-14T08:41:12;9.18;53.11
80412;SHT30;69749;42.684;23.360;2024-02-14T08:43:37;9.15;53.00
80412;SHT30;69749;42.684;23.360;2024-02-14T08:46:03;9.12;52.60
80412;SHT30;69749;42.684;23.360;2024-02-14T08:48:34;9.19;52.72
80412;SHT30;69749;42.684;23.360;2024-02-14T08:51:00;9.23;52.86
80412;SHT30;69749;42.684;23.360;2024-02-14T08:53:25;9.30;52.63
80412;SHT30;69749;42.684;23.360;2024-02-14T08:55:51;9.18;52.34
80412;SHT30;69749;42.684;23.360;2024-02-14T08:58:17;9.18;52.70
80412;SHT30;69749;42.684;23.360;2024-02-14T09:00:42;9.23;52.77
80412;SHT30;69749;42.684;23.360;2024-02-14T09:03:07;9.26;52.47
80412;SHT30;69749;42.684;23.360;2024-02-14T09:05:33;9.29;52.63
80412;SHT30;69749;42.684;23.360;2024-02-14T09:07:59;9.37;52.42
80412;SHT30;69749;42.684;23.360;2024-02-14T09:10:25;9.46;52.47
80412;SHT30;69749;42.684;23.360;2024-02-14T09:12:51;9.39;51.71
80412;SHT30;69749;42.684;23.360;2024-02-14T09:15:16;9.29;51.84
80412;SHT30;69749;42.684;23.360;2024-02-14T09:17:42;9.20;52.11
80412;SHT30;69749;42.684;23.360;2024-02-14T09:20:08;9.12;52.95
80412;SHT30;69749;42.684;23.360;2024-02-14T09:22:37;9.19;52.82
80412;SHT30;69749;42.684;23.360;2024-02-14T09:25:03;9.25;52.74
80412;SHT30;69749;42.684;23.360;2024-02-14T09:27:30;9.23;52.93
80412;SHT30;69749;42.684;23.360;2024-02-14T09:29:55;9.15;52.69
80412;SHT30;69749;42.684;23.360;2024-02-14T09:32:21;9.11;52.81
80412;SHT30;69749;42.684;23.360;2024-02-14T09:34:46;9.20;52.96
80412;SHT30;69749;42.684;23.360;2024-02-14T09:37:12;9.05;52.82
80412;SHT30;69749;42.684;23.360;2024-02-14T09:39:38;8.92;53.32
80412;SHT30;69749;42.684;23.360;2024-02-14T09:42:08;8.92;53.36
80412;SHT30;69749;42.684;23.360;2024-02-14T09:44:35;8.88;53.24
80412;SHT30;69749;42.684;23.360;2024-02-14T09:47:03;8.98;53.53
80412;SHT30;69749;42.684;23.360;2024-02-14T09:49:31;9.06;53.22
80412;SHT30;69749;42.684;23.360;2024-02-14T09:51:57;9.11;53.24
80412;SHT30;69749;42.684;23.360;2024-02-14T09:54:24;9.25;53.09
80412;SHT30;69749;42.684;23.360;2024-02-14T09:56:51;9.39;53.07
80412;SHT30;69749;42.684;23.360;2024-02-14T09:59:22;9.53;52.40
80412;SHT30;69749;42.684;23.360;2024-02-14T10:01:47;9.51;52.01
80412;SHT30;69749;42.684;23.360;2024-02-14T10:04:16;9.50;51.87
80412;SHT30;69749;42.684;23.360;2024-02-14T10:06:43;9.47;52.31
80412;SHT30;69749;42.684;23.360;2024-02-14T10:09:09;9.42;51.91
80412;SHT30;69749;42.684;23.360;2024-02-14T10:11:35;9.48;51.51
80412;SHT30;69749;42.684;23.360;2024-02-14T10:14:01;9.48;51.89
80412;SHT30;69749;42.684;23.360;2024-02-14T10:16:34;9.51;51.80
80412;SHT30;69749;42.684;23.360;2024-02-14T10:19:00;9.48;51.64
80412;SHT30;69749;42.684;23.360;2024-02-14T10:21:26;9.40;51.30
80412;SHT30;69749;42.684;23.360;2024-02-14T10:23:53;9.20;51.42
80412;SHT30;69749;42.684;23.360;2024-02-14T10:26:22;9.12;51.99
80412;SHT30;69749;42.684;23.360;2024-02-14T10:28:47;9.11;52.31
80412;SHT30;69749;42.684;23.360;2024-02-14T10:31:14;9.19;51.84
80412;SHT30;69749;42.684;23.360;2024-02-14T10:33:41;9.23;51.03
80412;SHT30;69749;42.684;23.360;2024-02-14T10:36:08;9.27;51.40
80412;SHT30;69749;42.684;23.360;2024-02-14T10:38:34;9.35;51.42
80412;SHT30;69749;42.684;23.360;2024-02-14T10:41:00;9.43;50.79
80412;SHT30;69749;42.684;23.360;2024-02-14T10:43:26;9.48;50.74
80412;SHT30;69749;42.684;23.360;2024-02-14T10:45:56;9.53;49.85
80412;SHT30;69749;42.684;23.360;2024-02-14T10:48:24;9.46;50.43
80412;SHT30;69749;42.684;23.360;2024-02-14T10:50:54;9.43;50.11
80412;SHT30;69749;42.684;23.360;2024-02-14T10:53:20;9.32;50.06
80412;SHT30;69749;42.684;23.360;2024-02-14T10:55:48;9.26;50.46
80412;SHT30;69749;42.684;23.360;2024-02-14T10:58:16;9.26;50.53
80412;SHT30;69749;42.684;23.360;2024-02-14T11:00:42;9.29;50.68
80412;SHT30;69749;42.684;23.360;2024-02-14T11:03:08;9.37;50.66
80412;SHT30;69749;42.684;23.360;2024-02-14T11:05:45;9.46;50.38
80412;SHT30;69749;42.684;23.360;2024-02-14T11:08:18;9.51;50.28
80412;SHT30;69749;42.684;23.360;2024-02-14T11:10:55;9.51;50.20
80412;SHT30;69749;42.684;23.360;2024-02-14T11:13:21;9.58;50.37
80412;SHT30;69749;42.684;23.360;2024-02-14T11:15:51;9.58;49.84
80412;SHT30;69749;42.684;23.360;2024-02-14T11:18:27;9.58;50.25
80412;SHT30;69749;42.684;23.360;2024-02-14T11:20:56;9.60;50.14
80412;SHT30;69749;42.684;23.360;2024-02-14T11:23:25;9.57;49.62
80412;SHT30;69749;42.684;23.360;2024-02-14T11:26:00;9.51;49.64
80412;SHT30;69749;42.684;23.360;2024-02-14T11:28:28;9.53;50.00
80412;SHT30;69749;42.684;23.360;2024-02-14T11:31:00;9.56;50.01
80412;SHT30;69749;42.684;23.360;2024-02-14T11:33:26;9.57;49.93
80412;SHT30;69749;42.684;23.360;2024-02-14T11:35:53;9.51;50.15
80412;SHT30;69749;42.684;23.360;2024-02-14T11:38:19;9.46;50.10
80412;SHT30;69749;42.684;23.360;2024-02-14T11:53:49;9.54;50.39
80412;SHT30;69749;42.684;23.360;2024-02-14T11:56:15;9.64;49.89
80412;SHT30;69749;42.684;23.360;2024-02-14T11:58:42;9.50;49.46
80412;SHT30;69749;42.684;23.360;2024-02-14T12:01:07;9.53;49.88
80412;SHT30;69749;42.684;23.360;2024-02-14T12:03:34;9.47;50.24
80412;SHT30;69749;42.684;23.360;2024-02-14T12:06:01;9.53;50.10
80412;SHT30;69749;42.684;23.360;2024-02-14T12:08:28;9.56;49.87
80412;SHT30;69749;42.684;23.360;2024-02-14T12:10:54;9.57;49.87
80412;SHT30;69749;42.684;23.360;2024-02-14T12:13:21;9.61;49.93
80412;SHT30;69749;42.684;23.360;2024-02-14T12:15:48;9.66;49.94
80412;SHT30;69749;42.684;23.360;2024-02-14T12:18:15;9.54;49.20
80412;SHT30;69749;42.684;23.360;2024-02-14T12:20:42;9.47;49.78
80412;SHT30;69749;42.684;23.360;2024-02-14T12:23:19;9.32;50.02
80412;SHT30;69749;42.684;23.360;2024-02-14T12:25:48;9.25;50.05
80412;SHT30;69749;42.684;23.360;2024-02-14T12:49:17;9.61;49.20
80412;SHT30;69749;42.684;23.360;2024-02-14T12:54:29;9.77;49.37
80412;SHT30;69749;42.684;23.360;2024-02-14T12:56:55;9.77;49.19
80412;SHT30;69749;42.684;23.360;2024-02-14T12:59:20;9.81;49.02
80412;SHT30;69749;42.684;23.360;2024-02-14T13:01:46;9.83;49.04
80412;SHT30;69749;42.684;23.360;2024-02-14T13:04:13;9.76;48.70
80412;SHT30;69749;42.684;23.360;2024-02-14T13:06:41;9.73;49.17
80412;SHT30;69749;42.684;23.360;2024-02-14T13:09:07;9.71;49.22
80412;SHT30;69749;42.684;23.360;2024-02-14T13:11:33;9.73;48.60
80412;SHT30;69749;42.684;23.360;2024-02-14T13:13:59;9.78;48.95
80412;SHT30;69749;42.684;23.360;2024-02-14T13:16:25;9.81;48.84
80412;SHT30;69749;42.684;23.360;2024-02-14T13:18:50;9.87;48.33
80412;SHT30;69749;42.684;23.360;2024-02-14T13:21:16;9.87;48.41
80412;SHT30;69749;42.684;23.360;2024-02-14T13:23:42;9.87;48.61
80412;SHT30;69749;42.684;23.360;2024-02-14T13:26:08;9.88;48.46
80412;SHT30;69749;42.684;23.360;2024-02-14T13:28:34;9.94;48.36
80412;SHT30;69749;42.684;23.360;2024-02-14T13:31:00;9.88;48.40
80412;SHT30;69749;42.684;23.360;2024-02-14T13:33:26;9.95;48.01
80412;SHT30;69749;42.684;23.360;2024-02-14T13:35:51;10.02;47.83
80412;SHT30;69749;42.684;23.360;2024-02-14T13:38:17;10.01;48.39
80412;SHT30;69749;42.684;23.360;2024-02-14T13:40:43;10.06;48.21
80412;SHT30;69749;42.684;23.360;2024-02-14T13:43:09;10.11;47.80
80412;SHT30;69749;42.684;23.360;2024-02-14T13:45:43;10.09;47.47
80412;SHT30;69749;42.684;23.360;2024-02-14T13:48:09;10.12;47.63
80412;SHT30;69749;42.684;23.360;2024-02-14T13:50:35;10.14;47.53
80412;SHT30;69749;42.684;23.360;2024-02-14T13:53:00;10.18;47.48
80412;SHT30;69749;42.684;23.360;2024-02-14T13:55:26;10.22;47.27
80412;SHT30;69749;42.684;23.360;2024-02-14T13:57:51;10.25;47.18
80412;SHT30;69749;42.684;23.360;2024-02-14T14:00:17;10.32;46.96
80412;SHT30;69749;42.684;23.360;2024-02-14T14:02:42;10.24;46.82
80412;SHT30;69749;42.684;23.360;2024-02-14T14:05:11;10.25;46.89
80412;SHT30;69749;42.684;23.360;2024-02-14T14:07:40;10.28;47.04
80412;SHT30;69749;42.684;23.360;2024-02-14T14:10:08;10.29;47.18
80412;SHT30;69749;42.684;23.360;2024-02-14T14:12:34;10.28;47.00
80412;SHT30;69749;42.684;23.360;2024-02-14T14:15:01;10.28;46.74
80412;SHT30;69749;42.684;23.360;2024-02-14T14:17:27;10.28;46.97
80412;SHT30;69749;42.684;23.360;2024-02-14T14:19:53;10.22;46.91
80412;SHT30;69749;42.684;23.360;2024-02-14T14:22:19;10.28;47.18
80412;SHT30;69749;42.684;23.360;2024-02-14T14:24:47;10.32;46.54
80412;SHT30;69749;42.684;23.360;2024-02-14T14:27:13;10.26;46.04
80412;SHT30;69749;42.684;23.360;2024-02-14T14:29:40;10.29;46.37
80412;SHT30;69749;42.684;23.360;2024-02-14T14:32:09;10.31;46.67
80412;SHT30;69749;42.684;23.360;2024-02-14T14:34:35;10.32;46.69
80412;SHT30;69749;42.684;23.360;2024-02-14T14:37:04;10.41;46.35
80412;SHT30;69749;42.684;23.360;2024-02-14T14:39:29;10.42;46.49
80412;SHT30;69749;42.684;23.360;2024-02-14T14:41:56;10.43;46.21
80412;SHT30;69749;42.684;23.360;2024-02-14T14:44:24;10.39;46.63
80412;SHT30;69749;42.684;23.360;2024-02-14T14:46:50;10.35;46.81
80412;SHT30;69749;42.684;23.360;2024-02-14T14:49:16;10.38;46.76
80412;SHT30;69749;42.684;23.360;2024-02-14T14:51:42;10.38;46.60
80412;SHT30;69749;42.684;23.360;2024-02-14T14:54:08;10.42;46.70
80412;SHT30;69749;42.684;23.360;2024-02-14T14:56:33;10.31;46.22
80412;SHT30;69749;42.684;23.360;2024-02-14T14:58:59;10.28;46.58
80412;SHT30;69749;42.684;23.360;2024-02-14T15:01:29;10.24;46.71
80412;SHT30;69749;42.684;23.360;2024-02-14T15:03:54;10.25;47.04
80412;SHT30;69749;42.684;23.360;2024-02-14T15:06:20;10.29;46.96
80412;SHT30;69749;42.684;23.360;2024-02-14T15:08:45;10.25;46.46
80412;SHT30;69749;42.684;23.360;2024-02-14T15:11:15;10.28;46.64
80412;SHT30;69749;42.684;23.360;2024-02-14T15:13:45;10.28;46.60
80412;SHT30;69749;42.684;23.360;2024-02-14T15:16:11;10.28;46.85
80412;SHT30;69749;42.684;23.360;2024-02-14T15:18:38;10.29;46.27
80412;SHT30;69749;42.684;23.360;2024-02-14T15:21:04;10.28;46.00
80412;SHT30;69749;42.684;23.360;2024-02-14T15:23:35;10.25;46.42
80412;SHT30;69749;42.684;23.360;2024-02-14T15:26:00;10.25;46.20
80412;SHT30;69749;42.684;23.360;2024-02-14T15:28:30;10.25;46.32
80412;SHT30;69749;42.684;23.360;2024-02-14T15:30:56;10.18;46.16
80412;SHT30;69749;42.684;23.360;2024-02-14T15:33:46;10.14;46.35
80412;SHT30;69749;42.684;23.360;2024-02-14T15:36:21;10.14;45.69
80412;SHT30;69749;42.684;23.360;2024-02-14T15:38:47;10.14;45.82
80412;SHT30;69749;42.684;23.360;2024-02-14T15:41:13;10.12;46.06
80412;SHT30;69749;42.684;23.360;2024-02-14T15:43:42;10.12;45.93
80412;SHT30;69749;42.684;23.360;2024-02-14T15:46:18;10.14;46.13
80412;SHT30;69749;42.684;23.360;2024-02-14T15:48:44;10.11;45.56
80412;SHT30;69749;42.684;23.360;2024-02-14T15:51:12;10.09;45.87
80412;SHT30;69749;42.684;23.360;2024-02-14T15:53:41;9.99;45.98
80412;SHT30;69749;42.684;23.360;2024-02-14T15:56:06;9.93;45.64
80412;SHT30;69749;42.684;23.360;2024-02-14T15:58:34;9.91;45.83
80412;SHT30;69749;42.684;23.360;2024-02-14T16:00:59;9.95;46.07
80412;SHT30;69749;42.684;23.360;2024-02-14T16:03:25;9.93;46.16
80412;SHT30;69749;42.684;23.360;2024-02-14T16:05:53;9.94;45.93
80412;SHT30;69749;42.684;23.360;2024-02-14T16:08:18;9.95;46.00
80412;SHT30;69749;42.684;23.360;2024-02-14T16:10:47;9.88;45.78
80412;SHT30;69749;42.684;23.360;2024-02-14T16:13:15;9.84;46.24
80412;SHT30;69749;42.684;23.360;2024-02-14T16:15:41;9.84;46.46
80412;SHT30;69749;42.684;23.360;2024-02-14T16:18:10;9.81;46.51
80412;SHT30;69749;42.684;23.360;2024-02-14T16:20:39;9.74;46.18
80412;SHT30;69749;42.684;23.360;2024-02-14T16:23:04;9.66;46.45
80412;SHT30;69749;42.684;23.360;2024-02-14T16:25:32;9.63;46.43
80412;SHT30;69749;42.684;23.360;2024-02-14T16:28:05;9.56;46.32
80412;SHT30;69749;42.684;23.360;2024-02-14T16:30:31;9.57;46.50
80412;SHT30;69749;42.684;23.360;2024-02-14T16:32:57;9.63;46.43
80412;SHT30;69749;42.684;23.360;2024-02-14T16:35:23;9.66;46.63